• Join FlightAware (Why Join?)
  • Login
  • US Flag 
10:38AM EST


 

Airport Tracker/Info


-or-


 

Live Flight TrackerFlight Track Log ✈ EJA929 ✈ 18-Sep-2013 ✈ KSFO - KIAD

Flight Track Log - Related Links

Times and Time Zones

All times are in EDT time to prevent confusion due to time zone crossing. See the EJA929 flight status page for this flight to view local times or setup timezone preferences in your user account.

Time Position Orientation Groundspeed Altitude Reporting Facility
EDT Latitude Longitude Course Direction KTS MPH feet Rate Location/Type
11:26AM 37.6500 -122.3500 74° East 187 215 2,000  Level Northern Cal TRACON
11:27AM 37.6833 -122.2833 58° Northeast 241 277 5,000 3,540 Climbing Northern Cal TRACON
11:28AM 37.7333 -122.2167 47° Northeast 273 314 9,100 3,840 Climbing Northern Cal TRACON
11:29AM 37.7833 -122.1333 53° Northeast 296 341 12,700 3,060 Climbing Northern Cal TRACON
11:30AM 37.8333 -122.0500 53° Northeast 325 374 15,300 1,860 Climbing Northern Cal TRACON
11:32AM 37.8550 -121.3416 74° East  Level Estimated
11:32AM 37.8958 -121.8081 72° East 400 460 18,100  Level Oakland Center
11:33AM 37.9272 -121.6658 74° East 415 478 19,100 960 Climbing Oakland Center
11:34AM 37.9594 -121.5189 74° East 432 497 20,100 1,020 Climbing Oakland Center
11:35AM 37.9972 -121.3550 74° East 451 519 21,300 1,260 Climbing Oakland Center
11:36AM 38.0303 -121.2003 75° East 458 527 22,800 1,260 Climbing Oakland Center
11:37AM 38.0653 -121.0436 74° East 463 533 23,900 1,200 Climbing Oakland Center
11:39AM 38.1160 -120.7870 76° East  Level FlightAware Approximate
11:39AM 38.1681 -120.6892 76° East 493 567 26,600  Level Oakland Center
11:40AM 38.2283 -120.5397 63° Northeast 481 554 28,600 1,440 Climbing Oakland Center
11:41AM 38.2667 -120.3742 74° East 501 577 29,600 1,020 Climbing Oakland Center
11:42AM 38.2964 -120.1972 78° East 511 588 30,800 1,320 Climbing Oakland Center
11:43AM 38.3275 -120.0158 78° East 523 602 32,400 1,440 Climbing Oakland Center
11:44AM 38.3561 -119.8319 79° East 528 608 33,800 1,440 Climbing Oakland Center
11:45AM 38.3858 -119.6447 78° East 537 618 35,400 1,560 Climbing Oakland Center
11:46AM 38.4231 -119.4203 78° East 542 624 37,100 1,260 Climbing Oakland Center
11:47AM 38.4531 -119.2289 79° East 549 632 38,100 960 Climbing Oakland Center
11:49AM 38.5003 -118.9233 79° East 552 635 39,700 960 Climbing Salt Lake Center
11:50AM 38.5289 -118.7328 79° East 551 634 40,700 600 Climbing Salt Lake Center
11:51AM 38.5581 -118.5453 79° East 545 627 41,000 120 Climbing Salt Lake Center
11:52AM 38.5883 -118.3369 79° East 560 644 41,000  Level Salt Lake Center
11:53AM 38.6186 -118.1350 79° East 573 659 41,000  Level Salt Lake Center
11:54AM 38.6481 -117.9331 79° East 576 663 41,000  Level Salt Lake Center
11:55AM 38.6836 -117.6861 79° East 584 672 41,000 180 Level Salt Lake Center
11:56AM 38.7122 -117.4817 80° East 581 669 41,400 420 Climbing Salt Lake Center
11:57AM 38.7406 -117.2797 80° East 575 662 41,900 480 Climbing Salt Lake Center
11:58AM 38.7683 -117.0794 80° East 569 655 42,400 480 Climbing Salt Lake Center
11:59AM 38.7950 -116.8792 80° East 568 654 42,900 240 Climbing Salt Lake Center
12:00PM 38.8222 -116.6772 80° East 571 657 43,000  Climbing Salt Lake Center
12:01PM 38.8489 -116.4756 80° East 571 657 43,000  Level Salt Lake Center
12:02PM 38.8753 -116.2719 80° East 577 664 43,000  Level Salt Lake Center
12:03PM 38.9072 -116.0272 80° East 578 665 43,000  Level Salt Lake Center
12:04PM 38.9322 -115.8239 81° East 576 663 43,000  Level Salt Lake Center
12:05PM 38.9581 -115.6231 81° East 571 657 43,000  Level Salt Lake Center
12:06PM 38.9836 -115.4175 81° East 578 665 43,000  Level Salt Lake Center
12:08PM 39.0094 -115.1989 81° East 577 664 43,000  Level Salt Lake Center
12:09PM 39.0336 -115.0047 81° East 576 663 43,000  Level Salt Lake Center
12:10PM 39.0608 -114.7758 81° East 580 667 43,000  Level Salt Lake Center
12:11PM 39.0833 -114.5828 81° East 580 667 43,000  Level Salt Lake Center
12:12PM 39.1069 -114.3764 82° East 582 670 43,000  Level Salt Lake Center
12:13PM 39.1344 -114.1322 82° East 576 663 43,000  Level Salt Lake Center
12:14PM 39.1556 -113.9417 82° East 576 663 43,000  Level Salt Lake Center
12:15PM 39.1778 -113.7369 82° East 580 667 43,000  Level Salt Lake Center
12:16PM 39.2000 -113.5311 82° East 582 670 43,000  Level Salt Lake Center
12:17PM 39.2253 -113.2886 82° East 574 661 43,000  Level Salt Lake Center
12:18PM 39.2464 -113.0847 82° East 575 662 43,000  Level Salt Lake Center
12:19PM 39.2667 -112.8814 83° East 574 661 43,000  Level Salt Lake Center
12:20PM 39.2867 -112.6792 83° East 573 659 43,000  Level Salt Lake Center
12:21PM 39.3089 -112.4756 82° East 574 661 43,000  Level Salt Lake Center
12:22PM 39.3539 -112.2350 76° East 577 664 43,000  Level Salt Lake Center
12:23PM 39.3900 -112.0336 77° East 579 666 43,000  Level Salt Lake Center
12:24PM 39.4261 -111.8342 77° East 576 663 43,000  Level Salt Lake Center
12:25PM 39.4633 -111.6344 76° East 575 662 43,000  Level Salt Lake Center
12:26PM 39.4997 -111.4364 77° East 571 657 43,000  Level Salt Lake Center
12:27PM 39.5392 -111.2044 77° East 575 662 43,000  Level Salt Lake Center
12:28PM 39.5728 -111.0106 77° East 576 663 43,000  Level Salt Lake Center
12:29PM 39.6131 -110.7881 77° East 568 654 43,000  Level Salt Lake Center
12:30PM 39.6464 -110.5939 77° East 575 662 43,000  Level Salt Lake Center
12:31PM 39.6844 -110.3664 78° East 578 665 43,000  Level Salt Lake Center
12:32PM 39.7161 -110.1747 78° East 570 656 43,000  Level Salt Lake Center
12:33PM 39.7533 -109.9508 78° East 567 652 43,000  Level Salt Lake Center
12:34PM 39.7842 -109.7594 78° East 567 652 43,000  Level Salt Lake Center
12:35PM 39.8211 -109.5358 78° East 567 652 43,000 60 Level Salt Lake Center
12:36PM 39.8361 -109.4383 79° East 567 652 43,100 360 Climbing Denver Center
12:37PM 39.8667 -109.2481 78° East 560 644 43,600 480 Climbing Denver Center
12:38PM 39.9011 -109.0261 78° East 555 639 44,100 480 Climbing Denver Center
12:39PM 39.9306 -108.8367 78° East 552 635 44,600 420 Climbing Denver Center
12:40PM 39.9644 -108.6181 78° East 547 629 45,000 180 Climbing Denver Center
12:41PM 39.9919 -108.4303 79° East 546 628 45,000  Level Denver Center
12:42PM 40.0256 -108.2114 79° East 548 631 45,000  Level Denver Center
12:43PM 40.0525 -108.0247 79° East 546 628 45,000  Level Denver Center
12:44PM 40.0847 -107.8397 77° East 545 627 45,000  Level Denver Center
12:45PM 40.1361 -107.6289 72° East 544 626 45,000  Level Denver Center
12:46PM 40.1772 -107.4478 73° East 543 625 45,000  Level Denver Center
12:47PM 40.2253 -107.2353 73° East 545 627 45,000  Level Denver Center
12:48PM 40.2658 -107.0525 74° East 547 629 45,000  Level Denver Center
12:49PM 40.3142 -106.8381 73° East 549 632 45,000  Level Denver Center
12:50PM 40.3586 -106.6464 73° East 548 631 45,000  Level Denver Center
12:52PM 40.4025 -106.4414 74° East 548 631 45,000  Level Denver Center
12:53PM 40.4419 -106.2575 74° East 547 629 45,000  Level Denver Center
12:54PM 40.4842 -106.0664 74° East 542 624 45,000  Level Denver Center
12:55PM 40.5239 -105.8753 75° East 542 624 45,000  Level Denver Center
12:56PM 40.5633 -105.6867 75° East 538 619 45,000  Level Denver Center
12:57PM 40.6114 -105.4567 75° East 540 621 45,000  Level Denver Center
12:58PM 40.6517 -105.2642 75° East 543 625 45,000  Level Denver Center
12:59PM 40.6928 -105.0678 75° East 551 634 45,000  Level Denver Center
01:00PM 40.7328 -104.8675 75° East 559 643 45,000  Level Denver Center
01:01PM 40.7722 -104.6694 75° East 559 643 45,000  Level Denver Center
01:02PM 40.8117 -104.4722 75° East 555 639 45,000  Level Denver Center
01:03PM 40.8583 -104.2356 75° East 554 638 45,000  Level Denver Center
01:04PM 40.8964 -104.0397 76° East 552 635 45,000  Level Denver Center
01:05PM 40.9339 -103.8447 76° East 548 631 45,000  Level Denver Center
01:06PM 40.9708 -103.6506 76° East 546 628 45,000  Level Denver Center
01:07PM 41.0075 -103.4569 76° East 541 623 45,000  Level Denver Center
01:08PM 41.0475 -103.2428 76° East 538 619 45,000  Level Denver Center
01:09PM 41.0817 -103.0581 76° East 540 621 45,000  Level Denver Center
01:10PM 41.1075 -102.8625 80° East 539 620 45,000  Level Denver Center
01:11PM 41.1214 -102.6428 85° East 537 618 45,000  Level Denver Center
01:12PM 41.1381 -102.4533 83° East 538 619 45,000  Level Denver Center
01:13PM 41.1528 -102.2333 85° East 536 617 45,000  Level Denver Center
01:14PM 41.1675 -102.0433 84° East 539 620 45,000  Level Denver Center
01:15PM 41.1833 -101.8217 85° East 540 621 45,000  Level Denver Center
01:16PM 41.1975 -101.6331 84° East 537 618 45,000  Level Denver Center
01:17PM 41.2117 -101.4119 85° East 537 618 45,000  Level Denver Center
01:18PM 41.2250 -101.2236 85° East 535 616 45,000  Level Denver Center
01:19PM 41.2389 -101.0028 85° East 534 615 45,000  Level Denver Center
01:21PM 41.2505 -100.8000 86° East  Level FlightAware Approximate
01:23PM 41.2764 -100.4050 87° East 532 612 45,000  Level Denver Center
01:25PM 41.2760 -100.1047 90° East  Level Estimated
01:26PM 41.3094 -99.8058 90° East 535 616 45,000  Level Denver Center
01:27PM 41.3208 -99.5850 86° East 535 616 45,000  Level Denver Center
01:28PM 41.3169 -99.4464 87° East  Level FlightAware Approximate
01:28PM 41.3294 -99.3922 87° East 535 616 45,000  Level Denver Center
01:29PM 41.3381 -99.2325 86° East 537 618 45,000  Level Denver Center
01:30PM 41.3492 -98.9911 86° East 538 619 45,000  Level Denver Center
01:31PM 41.3597 -98.7856 86° East 543 625 45,000  Level Denver Center
01:32PM 41.3703 -98.4792 87° East 542 624 45,000  Level Minneapolis Center
01:33PM 41.3781 -98.3000 87° East 544 626 45,000  Level Minneapolis Center
01:34PM 41.3853 -98.0811 87° East 534 615 45,000  Level Minneapolis Center
01:35PM 41.3903 -97.8842 88° East 534 615 45,000  Level Minneapolis Center
01:36PM 41.3969 -97.6867 87° East 533 613 45,000  Level Minneapolis Center
01:37PM 41.4019 -97.4903 88° East 531 611 45,000  Level Minneapolis Center
01:38PM 41.4075 -97.2522 88° East 534 615 45,000  Level Minneapolis Center
01:40PM 41.4125 -97.0553 88° East 533 613 45,000  Level Minneapolis Center
01:41PM 41.4172 -96.8575 88° East 534 615 45,000  Level Minneapolis Center
01:42PM 41.4200 -96.6594 89° East 535 616 45,000  Level Minneapolis Center
01:43PM 41.4242 -96.4611 88° East 536 617 45,000  Level Minneapolis Center
01:44PM 41.4278 -96.2419 89° East 539 620 45,000  Level Minneapolis Center
01:45PM 41.4294 -96.0411 89° East 541 623 45,000  Level Minneapolis Center
01:46PM 41.4308 -95.8436 89° East 533 613 45,000  Level Minneapolis Center
01:47PM 41.4347 -95.6433 88° East 536 617 45,000  Level Minneapolis Center
01:48PM 41.4358 -95.4069 90° East 542 624 45,000  Level Minneapolis Center
01:49PM 41.4378 -95.2061 89° East 542 624 45,000  Level Minneapolis Center
01:50PM 41.4386 -95.0039 90° East 545 627 45,000  Level Minneapolis Center
01:51PM 41.4400 -94.8039 89° East 541 623 45,000  Level Minneapolis Center
01:52PM 41.4389 -94.6044 90° East 541 623 45,000  Level Minneapolis Center
01:53PM 41.4406 -94.4042 89° East 542 624 45,000  Level Minneapolis Center
01:54PM 41.4381 -94.1744 91° East 540 621 45,000  Level Minneapolis Center
01:55PM 41.4336 -93.9769 92° East 539 620 45,000  Level Minneapolis Center
01:56PM 41.4206 -93.7786 95° East 541 623 45,000  Level Minneapolis Center
01:57PM 41.4083 -93.5797 95° East 541 623 45,000  Level Minneapolis Center
01:58PM 41.3933 -93.3400 95° East 544 626 45,000  Level Minneapolis Center
01:59PM 41.3806 -93.1411 95° East 544 626 45,000  Level Minneapolis Center
02:00PM 41.3656 -92.9450 96° East 538 619 45,000  Level Minneapolis Center
02:01PM 41.3517 -92.7458 95° East 539 620 45,000  Level Chicago Center
02:02PM 41.3378 -92.5464 95° East 542 624 45,000  Level Chicago Center
02:03PM 41.3236 -92.3661 96° East 543 625 45,000  Level Chicago Center
02:04PM 41.3058 -92.1361 96° East 535 616 45,000  Level Chicago Center
02:05PM 41.2908 -91.9400 96° East 538 619 45,000  Level Chicago Center
02:06PM 41.2742 -91.7436 96° East 540 621 45,000  Level Chicago Center
02:07PM 41.2581 -91.5472 96° East 541 623 45,000  Level Chicago Center
02:08PM 41.2394 -91.3192 96° East 542 624 45,000  Level Chicago Center
02:09PM 41.2219 -91.1194 97° East 544 626 45,000  Level Chicago Center
02:10PM 41.2042 -90.9222 97° East 542 624 45,000  Level Chicago Center
02:11PM 41.1867 -90.7264 97° East 536 617 45,000  Level Chicago Center
02:13PM 41.1697 -90.5294 96° East 536 617 45,000  Level Chicago Center
02:14PM 41.1472 -90.2947 97° East 534 615 45,000  Level Chicago Center
02:15PM 41.1289 -90.1022 97° East 525 604 45,000  Level Chicago Center
02:16PM 41.1103 -89.9069 97° East 528 608 45,000  Level Chicago Center
02:17PM 41.0919 -89.7119 97° East 529 609 45,000  Level Chicago Center
02:18PM 41.0728 -89.5169 97° East 528 608 45,000  Level Chicago Center
02:19PM 41.0514 -89.3242 98° East 527 606 45,000  Level Chicago Center
02:20PM 41.0275 -89.1342 99° East 520 598 45,000  Level Chicago Center
02:21PM 41.0000 -88.9092 99° East 519 597 45,000  Level Chicago Center
02:22PM 40.9778 -88.7189 99° East 522 601 45,000  Level Chicago Center
02:23PM 40.9561 -88.5328 99° East 519 597 45,000  Level Chicago Center
02:24PM 40.9331 -88.3464 99° East 519 597 45,000  Level Chicago Center
02:25PM 40.9108 -88.1581 99° East 524 603 45,000  Level Chicago Center
02:26PM 40.8836 -87.9353 99° East 520 598 45,000  Level Chicago Center
02:27PM 40.8606 -87.7489 99° East 520 598 45,000  Level Chicago Center
02:28PM 40.8356 -87.5636 100° East 519 597 45,000  Level Chicago Center
02:29PM 40.8106 -87.3772 100° East 520 598 45,000  Level Chicago Center
02:30PM 40.7814 -87.1519 100° East 523 602 45,000  Level Chicago Center
02:31PM 40.7556 -86.9625 100° East 527 606 45,000  Level Chicago Center
02:32PM 40.7303 -86.7769 100° East 522 601 45,000  Level Chicago Center
02:33PM 40.7025 -86.5717 100° East 524 603 45,000  Level Chicago Center
02:34PM 40.6792 -86.4100 101° East 527 606 45,000  Level Chicago Center
02:35PM 40.6469 -86.1803 100° East 531 611 45,000  Level Chicago Center
02:36PM 40.6192 -85.9908 101° East 529 609 45,000  Level Chicago Center
02:37PM 40.5917 -85.8000 101° East 531 611 45,000  Level Chicago Center
02:38PM 40.5642 -85.6100 101° East 531 611 45,000  Level Chicago Center
02:39PM 40.5333 -85.4156 102° East 541 623 45,000  Level Chicago Center
02:40PM 40.5053 -85.2267 101° East 534 615 45,000  Level Chicago Center
02:42PM 40.4717 -85.0017 101° East 528 608 45,000  Level Chicago Center
02:43PM 40.4439 -84.8197 101° East 530 610 45,000  Level Indianapolis Center
02:44PM 40.4150 -84.6311 101° East 530 610 45,000  Level Indianapolis Center
02:45PM 40.3850 -84.4422 102° East 529 609 45,000  Level Indianapolis Center
02:46PM 40.3478 -84.2139 102° East 534 615 45,000  Level Indianapolis Center
02:47PM 40.3172 -84.0239 102° East 533 613 45,000  Level Indianapolis Center
02:48PM 40.2858 -83.8347 102° East 530 610 45,000  Level Indianapolis Center
02:49PM 40.2550 -83.6461 102° East 528 608 45,000  Level Indianapolis Center
02:50PM 40.2239 -83.4564 102° East 529 609 45,000  Level Indianapolis Center
02:51PM 40.1914 -83.2675 103° East 527 606 45,000  Level Indianapolis Center
02:52PM 40.1594 -83.0783 102° East 530 610 45,000  Level Indianapolis Center
02:53PM 40.1264 -82.8919 103° East 526 605 45,000  Level Indianapolis Center
02:54PM 40.0875 -82.6669 103° East 528 608 45,000  Level Indianapolis Center
02:55PM 40.0539 -82.4800 103° East 528 608 45,000  Level Indianapolis Center
02:56PM 40.0211 -82.2933 103° East 528 608 45,000  Level Indianapolis Center
02:57PM 39.9867 -82.1078 104° East 527 606 45,000  Level Indianapolis Center
02:58PM 39.9542 -81.9208 103° East 528 608 45,000  Level Indianapolis Center
02:59PM 39.9194 -81.7353 104° East 527 606 45,000  Level Indianapolis Center
03:00PM 39.8786 -81.5128 103° East 529 609 45,000 -300 Level Indianapolis Center
03:01PM 39.8436 -81.3289 104° East 528 608 44,400 -780 Descending Indianapolis Center
03:02PM 39.8086 -81.1425 104° East 530 610 43,400 -960 Descending Indianapolis Center
03:03PM 39.7722 -80.9558 104° East 530 610 42,400 -1,020 Descending Indianapolis Center
03:04PM 39.7361 -80.7656 104° East 535 616 41,400 -1,080 Descending Indianapolis Center
03:05PM 39.6983 -80.5767 105° East 538 619 40,200 -1,320 Descending Indianapolis Center
03:06PM 39.6772 -80.4544 103° East 542 624 39,400 -1,320 Descending Cleveland Center
03:07PM 39.6397 -80.2642 104° East 546 628 38,200 -2,040 Descending Cleveland Center
03:08PM 39.6008 -80.0736 105° East 553 636 35,300 -3,360 Descending Cleveland Center
03:09PM 39.5886 -79.8464 94° East 507 583 31,200 -3,300 Descending Washington Center
03:10PM 39.5653 -79.6753 100° East 502 578 28,500 -2,100 Descending Washington Center
03:11PM 39.5056 -79.5294 118° Southeast 466 536 27,000 -780 Descending Washington Center
03:12PM 39.4711 -79.3689 105° East 460 529 27,000 -1,440 Level Washington Center
03:13PM 39.4386 -79.2033 104° East 460 529 24,200 -2,280 Descending Washington Center
03:14PM 39.4097 -79.0514 104° East 460 529 22,400 -960 Descending Washington Center
03:15PM 39.3847 -78.9106 103° East 430 495 22,400 -1,560 Level Washington Center
03:16PM 39.3611 -78.7725 102° East 407 468 19,400 -2,460 Descending Washington Center
03:17PM 39.3375 -78.6428 103° East 385 443 17,500 -2,040 Descending Washington Center
03:18PM 39.3136 -78.5156 104° East 372 428 15,400 -1,920 Descending Washington Center
03:19PM 39.2917 -78.3886 103° East 362 417 13,700 -1,800 Descending Washington Center
03:20PM 39.2419 -78.2822 121° Southeast 355 409 11,900 -1,620 Descending Washington Center
03:21PM 39.1958 -78.1922 123° Southeast 326 375 10,600 -1,200 Descending Washington Center
03:22PM 39.1642 -78.1133 117° Southeast 284 327 9,600 -1,140 Descending Washington Center
03:23PM 39.1322 -78.0428 120° Southeast 250 288 8,400 -1,200 Descending Washington Center
03:24PM 39.1044 -77.9722 117° Southeast 230 265 7,200 -1,080 Descending Washington Center
03:25PM 39.0806 -77.9153 118° Southeast 203 234 6,300 -840 Descending Washington Center
03:26PM 39.0589 -77.8611 117° Southeast 190 219 5,600 -720 Descending Washington Center
03:28PM 39.0167 -77.7500 116° Southeast 174 200 4,300 -600 Descending Potomac TRACON
03:29PM 39.0000 -77.7000 113° Southeast 167 192 4,000 -600 Descending Potomac TRACON
03:30PM 38.9833 -77.6500 113° Southeast 161 185 3,200 -900 Descending Potomac TRACON
03:31PM 38.9667 -77.5833 108° East 171 197 2,200 -1,020 Descending Potomac TRACON
03:32PM 38.9500 -77.5333 113° Southeast 163 188 1,200 -1,140 Descending Potomac TRACON
03:34PM 38.9474 -77.4599 165° South  Level Estimated
03:41PM 38.9474 -77.4599 165° South  Level Estimated
03:42PM 38.9474 -77.4599 165° South  Level Estimated
03:43PM 38.9474 -77.4599 165° South  Level Estimated
03:44PM 38.9474 -77.4599 165° South  Level Estimated
03:45PM 38.9474 -77.4599 165° South  Level Estimated
03:46PM 38.9474 -77.4599 165° South  Level Estimated